Aeroporto :
LOGIN :

Iscrizione | Disclaimer

   EN    FR    IT 

 










Sommario :    VFR   VFR Marginale   IFR   IFR Intensivo   IFR Molto Intensivo
Visibilità : 
Base nubi : 
>= 8 km
>= 3000ft
5 / 8 km
1000 / 3000 ft
1500m / 5 km
500 / 1000 ft
800 / 1500m
200 / 500 ft
< 800m
< 200 ft
Simboli :   Temporali  Nebbia  Neve Forte  Precipitazioni Forti  Vento > 20 kt
SIGMETs :   Varie  Temporali  Ghiacco  Turbolenza  Onda orograficha  Ceneri Vulcaniche






- Altitudine del aeroporto : 1058 ft
- Codice IATA : SCN


EDDR - Saarbrücken

ULTIMO METAR :
  • 181150Z 07003KT 360V110 CAVOK 30/17 Q1014 NOSIG

METARs OBSOLETI :
  • 181120Z 11003KT 050V150 CAVOK 30/16 Q1014 NOSIG
  • 181050Z 07004KT 030V130 9999 FEW045 28/17 Q1014 NOSIG
  • 181020Z 14004KT 080V250 9999 FEW030 27/17 Q1015 NOSIG
  • 180950Z 07004KT 020V100 9999 FEW030TCU 25/19 Q1014 NOSIG
  • 180920Z 16004KT 130V190 9999 -SHRA FEW030TCU 24/19 Q1015 NOSIG

TAF TAF EDDR
Valido dal 18 a 12 ore il 19 a 12 ore UTC


181128Z 1812/1912 14004KT CAVOK
BECMG 1812/1814 23005KT
PROB30
TEMPO 1812/1815 27020G40KT 2500 TSRAGR BKN050CB
BECMG 1820/1822 VRB03KT



MetMap, La meteo Aeronautica in un colpo d'occhio ! - Copyright ORBIFLY Dicembre 2007 - Disclaimer

ORBIFLY MET'MAP TEAM :

Programmazione e sviluppo : Alexandra Zaïnal
Concezione : Baudouin d'Aumeries
Aiuto per la programmazione : Marc-Olivier Méhu
Supporto tecnico e logistico : Manuel Goepfert
Aiuto per la traduzione : Arnaldo La Scala

Contatto : metmap@orbifly.com




FONTI E CREDITI :

   NOAA